Time;durP1;ratioP1;P1;durP2;ratioP2;P2;SDS_P1;SDS_P2;PMS_P1;PMS_P2;Temp;Humidity;BMP_temperature;BMP_pressure;BME280_temperature;BME280_humidity;BME280_pressure;Samples;Min_cycle;Max_cycle;Signal;HPM_P1;HPM_P2
2022/08/10 00:01:48;;;;;;;10.55;4.00;;;;;;;;;;5001329;28;20479;-79
2022/08/10 00:04:17;;;;;;;8.13;4.07;;;;;;;;;;5000095;28;20042;-79
2022/08/10 00:06:47;;;;;;;10.63;4.55;;;;;;;;;;5000193;28;20054;-79
2022/08/10 00:09:13;;;;;;;10.43;4.45;;;;;;;;;;5003121;28;20050;-79
2022/08/10 00:11:40;;;;;;;9.85;4.20;;;;;;;;;;4995242;28;20038;-79
2022/08/10 00:14:06;;;;;;;7.72;4.05;;;;;;;;;;5014745;28;20146;-80
2022/08/10 00:16:32;;;;;;;10.70;4.00;;;;;;;;;;5007918;28;20089;-78
2022/08/10 00:18:59;;;;;;;11.50;4.03;;;;;;;;;;4991176;28;20078;-78
2022/08/10 00:21:25;;;;;;;9.52;4.07;;;;;;;;;;4995979;28;20066;-78
2022/08/10 00:23:52;;;;;;;9.45;4.50;;;;;;;;;;5003019;28;20058;-79
2022/08/10 00:26:19;;;;;;;12.77;4.60;;;;;;;;;;5000613;28;20046;-78
2022/08/10 00:28:47;;;;;;;9.73;4.25;;;;;;;;;;4997612;28;20050;-79
2022/08/10 00:31:13;;;;;;;8.43;3.88;;;;;;;;;;4980283;28;20050;-79
2022/08/10 00:33:40;;;;;;;6.72;3.90;;;;;;;;;;4995752;28;20374;-79
2022/08/10 00:36:06;;;;;;;7.40;4.40;;;;;;;;;;4995850;28;20046;-78
2022/08/10 00:38:35;;;;;;;7.63;4.55;;;;;;;;;;4996448;28;20133;-79
2022/08/10 00:41:02;;;;;;;8.75;3.90;;;;;;;;;;4994982;28;20073;-78
2022/08/10 00:43:28;;;;;;;11.80;4.88;;;;;;;;;;4995775;28;20562;-78
2022/08/10 00:45:55;;;;;;;8.77;4.32;;;;;;;;;;4995594;28;20538;-79
2022/08/10 00:48:26;;;;;;;10.85;4.78;;;;;;;;;;4994723;28;20614;-79
2022/08/10 00:50:53;;;;;;;11.65;4.20;;;;;;;;;;4996967;28;20046;-80
2022/08/10 00:53:20;;;;;;;7.32;4.45;;;;;;;;;;4999769;28;20057;-79
2022/08/10 00:55:46;;;;;;;11.45;4.18;;;;;;;;;;5000730;28;20046;-79
2022/08/10 00:58:33;;;;;;;6.00;4.13;;;;;;;;;;5004681;28;20149;-79
2022/08/10 01:01:00;;;;;;;10.10;5.43;;;;;;;;;;5001798;28;20054;-80
2022/08/10 01:03:26;;;;;;;7.55;4.50;;;;;;;;;;5001445;28;20202;-78
2022/08/10 01:06:30;;;;;;;7.22;4.32;;;;;;;;;;5000421;28;20078;-79
2022/08/10 01:09:05;;;;;;;9.80;4.57;;;;;;;;;;5000739;28;20161;-79
2022/08/10 01:11:45;;;;;;;12.27;4.70;;;;;;;;;;5000706;28;20427;-80
2022/08/10 01:14:31;;;;;;;10.15;4.60;;;;;;;;;;5002255;28;20073;-79
2022/08/10 01:17:20;;;;;;;13.82;4.35;;;;;;;;;;5002071;28;20133;-78
2022/08/10 01:19:46;;;;;;;7.78;4.53;;;;;;;;;;4999096;28;20047;-78
2022/08/10 01:22:32;;;;;;;12.73;4.47;;;;;;;;;;4996895;28;20129;-79
2022/08/10 01:25:19;;;;;;;9.05;4.85;;;;;;;;;;4997621;28;20119;-79
2022/08/10 01:27:45;;;;;;;6.93;4.57;;;;;;;;;;4984366;28;20575;-79
2022/08/10 01:30:17;;;;;;;9.23;4.45;;;;;;;;;;4994019;28;20085;-79
2022/08/10 01:33:01;;;;;;;9.88;4.80;;;;;;;;;;4993807;28;20130;-79
2022/08/10 01:35:55;;;;;;;8.60;4.55;;;;;;;;;;4993946;28;20499;-78
2022/08/10 01:38:23;;;;;;;9.65;5.22;;;;;;;;;;4991026;28;20078;-79
2022/08/10 01:40:54;;;;;;;11.57;4.93;;;;;;;;;;4992988;28;20057;-78
2022/08/10 01:43:21;;;;;;;8.25;4.35;;;;;;;;;;4977623;28;20085;-79
2022/08/10 01:45:52;;;;;;;9.82;4.68;;;;;;;;;;4996267;28;20530;-78
2022/08/10 01:48:38;;;;;;;11.20;5.28;;;;;;;;;;4997036;28;20070;-79
2022/08/10 01:51:13;;;;;;;8.93;4.75;;;;;;;;;;4994363;28;20113;-79
2022/08/10 01:53:41;;;;;;;12.88;4.55;;;;;;;;;;4986278;28;20089;-79
2022/08/10 01:56:10;;;;;;;10.60;5.13;;;;;;;;;;4999571;28;20046;-78
2022/08/10 01:58:37;;;;;;;7.45;4.63;;;;;;;;;;5017632;28;20046;-78
2022/08/10 02:01:06;;;;;;;10.38;4.60;;;;;;;;;;5003202;28;20085;-79
2022/08/10 02:03:34;;;;;;;7.10;4.32;;;;;;;;;;4988149;28;20106;-77
2022/08/10 02:06:21;;;;;;;7.82;4.32;;;;;;;;;;5004176;28;20050;-79
2022/08/10 02:08:48;;;;;;;6.82;4.50;;;;;;;;;;5004108;28;20069;-77
2022/08/10 02:11:32;;;;;;;9.23;4.65;;;;;;;;;;4997693;28;20112;-79
2022/08/10 02:14:19;;;;;;;9.20;4.45;;;;;;;;;;4996618;28;20072;-79
2022/08/10 02:16:48;;;;;;;8.05;4.10;;;;;;;;;;4980625;28;20074;-79
2022/08/10 02:19:16;;;;;;;6.75;4.55;;;;;;;;;;4978991;28;20108;-78
2022/08/10 02:21:45;;;;;;;9.82;4.63;;;;;;;;;;4996883;28;20061;-79
2022/08/10 02:24:32;;;;;;;6.93;4.25;;;;;;;;;;4997717;28;20595;-78
2022/08/10 02:26:59;;;;;;;11.07;4.45;;;;;;;;;;4996398;28;20113;-78
2022/08/10 02:29:28;;;;;;;10.82;4.72;;;;;;;;;;4998144;28;20050;-79
2022/08/10 02:31:55;;;;;;;10.68;4.97;;;;;;;;;;4997243;28;20086;-78
2022/08/10 02:34:23;;;;;;;10.68;4.97;;;;;;;;;;5000237;28;20050;-79
2022/08/10 02:36:50;;;;;;;7.57;4.35;;;;;;;;;;5005384;28;20042;-79
2022/08/10 02:39:17;;;;;;;7.45;4.97;;;;;;;;;;5004330;28;20085;-79
2022/08/10 02:42:02;;;;;;;11.00;4.40;;;;;;;;;;5004595;28;20085;-79
2022/08/10 02:45:12;;;;;;;8.77;4.70;;;;;;;;;;4991806;28;20100;-79
2022/08/10 02:48:08;;;;;;;8.38;5.07;;;;;;;;;;5005306;28;20050;-80
2022/08/10 02:50:35;;;;;;;6.88;4.60;;;;;;;;;;5006035;28;20069;-78
2022/08/10 02:53:15;;;;;;;8.48;4.68;;;;;;;;;;5008658;28;20057;-79
2022/08/10 02:56:07;;;;;;;7.53;4.57;;;;;;;;;;5002189;28;20057;-79
2022/08/10 02:58:42;;;;;;;12.35;4.35;;;;;;;;;;4979104;28;20639;-78
2022/08/10 03:01:10;;;;;;;8.30;4.25;;;;;;;;;;4993022;28;20078;-79
2022/08/10 03:03:40;;;;;;;10.60;4.68;;;;;;;;;;4992635;28;20058;-78
2022/08/10 03:06:09;;;;;;;6.93;4.90;;;;;;;;;;5000658;28;20052;-81
2022/08/10 03:08:38;;;;;;;8.68;5.28;;;;;;;;;;5004042;28;20046;-80
2022/08/10 03:11:05;;;;;;;6.78;4.82;;;;;;;;;;5004027;28;20089;-80
2022/08/10 03:13:32;;;;;;;8.88;5.10;;;;;;;;;;5001592;28;20046;-81
2022/08/10 03:16:00;;;;;;;8.32;5.43;;;;;;;;;;5013147;28;20082;-78
2022/08/10 03:18:27;;;;;;;10.23;6.00;;;;;;;;;;4993710;28;20133;-79
2022/08/10 03:20:54;;;;;;;10.20;6.00;;;;;;;;;;4993671;28;20054;-80
2022/08/10 03:23:22;;;;;;;8.82;5.60;;;;;;;;;;4992023;28;20050;-77
2022/08/10 03:25:51;;;;;;;10.77;5.90;;;;;;;;;;4999818;28;20065;-79
2022/08/10 03:28:20;;;;;;;8.98;5.38;;;;;;;;;;5024886;28;20058;-79
2022/08/10 03:30:47;;;;;;;12.70;5.15;;;;;;;;;;5012455;28;20533;-80
2022/08/10 03:33:17;;;;;;;9.02;5.30;;;;;;;;;;5003944;28;20046;-80
2022/08/10 03:35:43;;;;;;;7.78;5.50;;;;;;;;;;4987500;28;20055;-80
2022/08/10 03:38:30;;;;;;;10.13;5.10;;;;;;;;;;5005081;28;20118;-80
2022/08/10 03:40:58;;;;;;;6.50;4.75;;;;;;;;;;5000552;28;20134;-79
2022/08/10 03:43:24;;;;;;;7.95;4.80;;;;;;;;;;5000504;28;20050;-78
2022/08/10 03:45:52;;;;;;;8.57;4.80;;;;;;;;;;5000945;28;20069;-79
2022/08/10 03:48:22;;;;;;;7.55;4.68;;;;;;;;;;5004241;28;20181;-80
2022/08/10 03:50:49;;;;;;;6.72;4.40;;;;;;;;;;5000441;28;20051;-78
2022/08/10 03:53:17;;;;;;;9.57;5.18;;;;;;;;;;4990235;28;20054;-79
2022/08/10 03:56:04;;;;;;;10.55;4.97;;;;;;;;;;4997803;28;20499;-79
2022/08/10 03:58:51;;;;;;;10.40;4.60;;;;;;;;;;4995310;28;20510;-77
2022/08/10 04:01:18;;;;;;;10.15;4.75;;;;;;;;;;4999215;28;20517;-78
2022/08/10 04:03:44;;;;;;;8.43;4.88;;;;;;;;;;4983598;28;20074;-79
2022/08/10 04:06:11;;;;;;;10.80;5.00;;;;;;;;;;4999394;28;20081;-80
2022/08/10 04:08:41;;;;;;;8.52;4.82;;;;;;;;;;4999772;28;20046;-78
2022/08/10 04:11:08;;;;;;;8.82;4.40;;;;;;;;;;4983189;28;20057;-80
2022/08/10 04:13:35;;;;;;;6.75;4.50;;;;;;;;;;5002537;28;20053;-79
2022/08/10 04:16:02;;;;;;;8.55;4.47;;;;;;;;;;5000586;28;20046;-79
2022/08/10 04:18:33;;;;;;;6.70;4.47;;;;;;;;;;5008593;28;20504;-78
2022/08/10 04:21:19;;;;;;;8.93;4.60;;;;;;;;;;5003504;28;20539;-79
2022/08/10 04:23:48;;;;;;;21.83;4.78;;;;;;;;;;4996838;28;20050;-80
2022/08/10 04:26:19;;;;;;;8.65;4.95;;;;;;;;;;4992429;28;20054;-80
2022/08/10 04:28:47;;;;;;;10.27;4.82;;;;;;;;;;4992505;28;20089;-80
2022/08/10 04:31:15;;;;;;;14.10;5.22;;;;;;;;;;4994887;28;20074;-81
2022/08/10 04:33:44;;;;;;;8.52;4.80;;;;;;;;;;4993015;28;20188;-79
2022/08/10 04:36:11;;;;;;;9.27;5.45;;;;;;;;;;4993052;28;20082;-79
2022/08/10 04:38:38;;;;;;;8.88;4.90;;;;;;;;;;4994863;28;20632;-79
2022/08/10 04:41:05;;;;;;;10.48;4.65;;;;;;;;;;4994152;28;20084;-79
2022/08/10 04:43:32;;;;;;;13.68;5.25;;;;;;;;;;4994988;28;20078;-80
2022/08/10 04:45:58;;;;;;;13.20;5.47;;;;;;;;;;4994449;28;20074;-80
2022/08/10 04:48:25;;;;;;;8.95;5.25;;;;;;;;;;4993824;28;20094;-79
2022/08/10 04:51:13;;;;;;;11.23;4.97;;;;;;;;;;4992374;28;20053;-80
2022/08/10 04:53:44;;;;;;;11.65;5.88;;;;;;;;;;4987590;28;20055;-80
2022/08/10 04:56:30;;;;;;;9.50;5.50;;;;;;;;;;4973575;28;20518;-80
2022/08/10 04:58:58;;;;;;;11.57;5.50;;;;;;;;;;4974362;28;20082;-80
2022/08/10 05:01:24;;;;;;;13.32;5.00;;;;;;;;;;4975107;28;20050;-80
2022/08/10 05:03:51;;;;;;;11.05;5.13;;;;;;;;;;4991297;28;20145;-79
2022/08/10 05:06:37;;;;;;;8.93;5.05;;;;;;;;;;4991087;28;20497;-79
2022/08/10 05:09:04;;;;;;;7.47;4.60;;;;;;;;;;4991905;28;20105;-79
2022/08/10 05:11:30;;;;;;;7.90;4.15;;;;;;;;;;5006703;28;20397;-78
2022/08/10 05:13:56;;;;;;;9.52;4.57;;;;;;;;;;4991780;28;20069;-79
2022/08/10 05:16:23;;;;;;;12.32;3.90;;;;;;;;;;4993425;28;20111;-78
2022/08/10 05:18:57;;;;;;;7.95;4.05;;;;;;;;;;4992568;28;20046;-78
2022/08/10 05:21:24;;;;;;;7.15;4.00;;;;;;;;;;4992335;28;20054;-78
2022/08/10 05:24:11;;;;;;;8.20;4.13;;;;;;;;;;4992723;28;20050;-78
2022/08/10 05:26:37;;;;;;;6.68;4.30;;;;;;;;;;4993311;28;20081;-78
2022/08/10 05:29:23;;;;;;;6.70;3.88;;;;;;;;;;4997914;28;20516;-80
2022/08/10 05:31:50;;;;;;;8.55;3.80;;;;;;;;;;5009442;28;20149;-79
2022/08/10 05:34:17;;;;;;;10.27;4.10;;;;;;;;;;4995057;28;20307;-78
2022/08/10 05:36:46;;;;;;;9.88;4.00;;;;;;;;;;4993698;28;20042;-79
2022/08/10 05:39:13;;;;;;;9.40;3.70;;;;;;;;;;4992663;28;20059;-77
2022/08/10 05:41:40;;;;;;;7.43;3.78;;;;;;;;;;4991258;28;20050;-78
2022/08/10 05:44:13;;;;;;;9.73;3.72;;;;;;;;;;4992593;28;20061;-77
2022/08/10 05:46:40;;;;;;;6.40;3.33;;;;;;;;;;4992398;28;20090;-79
2022/08/10 05:49:06;;;;;;;9.30;3.40;;;;;;;;;;4991617;28;20054;-78
2022/08/10 05:51:33;;;;;;;8.25;4.20;;;;;;;;;;4991178;28;20137;-78
2022/08/10 05:53:59;;;;;;;14.18;4.30;;;;;;;;;;4991470;28;20134;-78
2022/08/10 05:56:33;;;;;;;12.02;4.18;;;;;;;;;;4973287;28;20102;-79
2022/08/10 05:59:20;;;;;;;9.43;4.20;;;;;;;;;;4973598;28;20136;-79
2022/08/10 06:02:08;;;;;;;12.05;4.45;;;;;;;;;;4976404;28;20050;-80
2022/08/10 06:04:55;;;;;;;9.10;4.35;;;;;;;;;;4992222;28;20452;-79
2022/08/10 06:07:25;;;;;;;12.27;4.30;;;;;;;;;;4991818;28;20478;-78
2022/08/10 06:09:52;;;;;;;10.98;4.53;;;;;;;;;;4992846;28;20118;-76
2022/08/10 06:12:28;;;;;;;9.40;4.28;;;;;;;;;;5000125;28;20089;-77
2022/08/10 06:15:00;;;;;;;11.95;4.30;;;;;;;;;;4997809;28;20228;-78
2022/08/10 06:17:36;;;;;;;8.98;3.90;;;;;;;;;;4996137;28;20141;-79
2022/08/10 06:20:02;;;;;;;10.15;4.60;;;;;;;;;;4992270;28;20050;-77
2022/08/10 06:22:31;;;;;;;10.77;3.92;;;;;;;;;;4992777;28;20054;-79
2022/08/10 06:25:00;;;;;;;6.97;3.67;;;;;;;;;;4997557;28;20076;-78
2022/08/10 06:27:46;;;;;;;7.13;3.47;;;;;;;;;;4984441;28;20133;-79
2022/08/10 06:30:13;;;;;;;11.00;4.00;;;;;;;;;;5014116;28;20042;-80
2022/08/10 06:32:48;;;;;;;10.95;4.43;;;;;;;;;;5010751;28;20066;-80
2022/08/10 06:35:15;;;;;;;10.85;3.60;;;;;;;;;;5015674;28;20070;-80
2022/08/10 06:37:42;;;;;;;7.03;3.13;;;;;;;;;;5013243;28;20542;-79
2022/08/10 06:40:17;;;;;;;9.43;3.40;;;;;;;;;;5006122;28;20046;-79
2022/08/10 06:42:45;;;;;;;7.13;3.30;;;;;;;;;;5007993;28;20065;-81
2022/08/10 06:45:14;;;;;;;7.55;3.15;;;;;;;;;;5010135;28;20077;-79
2022/08/10 06:48:00;;;;;;;6.97;3.30;;;;;;;;;;5003134;28;20085;-79
2022/08/10 06:50:34;;;;;;;7.18;3.42;;;;;;;;;;4995732;28;20488;-80
2022/08/10 06:53:22;;;;;;;6.43;3.20;;;;;;;;;;4994930;28;20050;-79
2022/08/10 06:55:51;;;;;;;7.00;3.42;;;;;;;;;;4983145;28;20042;-78
2022/08/10 06:58:24;;;;;;;11.48;3.72;;;;;;;;;;4990188;28;20038;-79
2022/08/10 07:00:53;;;;;;;8.38;3.17;;;;;;;;;;4990447;28;20049;-79
2022/08/10 07:03:23;;;;;;;11.98;3.15;;;;;;;;;;4990378;28;20086;-79
2022/08/10 07:05:50;;;;;;;11.55;3.33;;;;;;;;;;4989186;28;20141;-79
2022/08/10 07:08:18;;;;;;;7.28;2.75;;;;;;;;;;4991691;28;20149;-79
2022/08/10 07:10:46;;;;;;;6.55;2.20;;;;;;;;;;4991002;28;20141;-79
2022/08/10 07:13:16;;;;;;;6.40;2.20;;;;;;;;;;4993136;28;20115;-79
2022/08/10 07:16:04;;;;;;;7.90;2.60;;;;;;;;;;4990834;28;20058;-77
2022/08/10 07:18:32;;;;;;;8.05;2.80;;;;;;;;;;4989569;28;20142;-76
2022/08/10 07:21:00;;;;;;;8.18;2.30;;;;;;;;;;4990098;28;20468;-77
2022/08/10 07:23:28;;;;;;;6.05;2.58;;;;;;;;;;4990039;28;20054;-76
2022/08/10 07:26:18;;;;;;;10.95;2.60;;;;;;;;;;4989431;28;20479;-77
2022/08/10 07:28:47;;;;;;;6.20;2.65;;;;;;;;;;4990293;28;20444;-76
2022/08/10 07:31:16;;;;;;;8.18;2.70;;;;;;;;;;4990711;28;20105;-76
2022/08/10 07:34:05;;;;;;;10.52;2.90;;;;;;;;;;4989788;28;20042;-77
2022/08/10 07:36:33;;;;;;;9.15;2.80;;;;;;;;;;4990300;28;20081;-77
2022/08/10 07:39:00;;;;;;;13.10;2.65;;;;;;;;;;4989540;28;20157;-76
2022/08/10 07:41:30;;;;;;;12.75;2.80;;;;;;;;;;4989212;28;20054;-77
2022/08/10 07:43:58;;;;;;;7.03;2.42;;;;;;;;;;4972721;28;20073;-78
2022/08/10 07:46:26;;;;;;;6.50;2.72;;;;;;;;;;5010534;28;20069;-77
2022/08/10 07:48:59;;;;;;;11.10;2.65;;;;;;;;;;5004299;28;20101;-75
2022/08/10 07:51:27;;;;;;;8.65;2.70;;;;;;;;;;4988545;28;20140;-77
2022/08/10 07:53:54;;;;;;;14.05;3.08;;;;;;;;;;4983385;28;20125;-78
2022/08/10 07:56:23;;;;;;;15.02;3.15;;;;;;;;;;5002612;28;20046;-77
2022/08/10 07:59:11;;;;;;;6.65;2.50;;;;;;;;;;4975924;28;20055;-76
2022/08/10 08:01:43;;;;;;;6.53;2.47;;;;;;;;;;4989410;28;20047;-77
2022/08/10 08:04:11;;;;;;;8.80;2.50;;;;;;;;;;4989104;28;20050;-77
2022/08/10 08:06:39;;;;;;;6.65;2.25;;;;;;;;;;4988835;28;20054;-79
2022/08/10 08:09:05;;;;;;;9.68;2.60;;;;;;;;;;4989528;28;20318;-76
2022/08/10 08:11:33;;;;;;;4.93;2.28;;;;;;;;;;4988815;28;20084;-77
2022/08/10 08:14:00;;;;;;;7.63;2.25;;;;;;;;;;4972395;28;20133;-77
2022/08/10 08:16:28;;;;;;;9.77;2.13;;;;;;;;;;4990241;28;20085;-77
2022/08/10 08:18:55;;;;;;;12.65;2.30;;;;;;;;;;4990568;28;20081;-77
2022/08/10 08:21:42;;;;;;;9.63;2.25;;;;;;;;;;4991560;28;20088;-77
2022/08/10 08:24:30;;;;;;;7.00;2.58;;;;;;;;;;4997969;28;20113;-77
2022/08/10 08:27:00;;;;;;;8.25;2.30;;;;;;;;;;4991459;28;20113;-77
2022/08/10 08:29:27;;;;;;;13.30;2.40;;;;;;;;;;4989744;28;20142;-77
2022/08/10 08:31:54;;;;;;;9.20;2.55;;;;;;;;;;4989065;28;20396;-78
2022/08/10 08:34:29;;;;;;;8.18;2.70;;;;;;;;;;4988218;28;20562;-77
2022/08/10 08:36:56;;;;;;;9.45;2.50;;;;;;;;;;4973138;28;20529;-76
2022/08/10 08:39:25;;;;;;;4.60;2.42;;;;;;;;;;4971296;28;20058;-77
2022/08/10 08:42:10;;;;;;;12.35;2.33;;;;;;;;;;4988630;28;20077;-77
2022/08/10 08:44:43;;;;;;;7.03;2.42;;;;;;;;;;4989668;28;20157;-76
2022/08/10 08:47:09;;;;;;;11.00;2.50;;;;;;;;;;4989454;28;20089;-76
2022/08/10 08:49:55;;;;;;;10.77;2.38;;;;;;;;;;4973602;28;20050;-76
2022/08/10 08:52:41;;;;;;;12.43;2.80;;;;;;;;;;4972959;28;20054;-77
2022/08/10 08:55:13;;;;;;;16.90;2.70;;;;;;;;;;4989087;28;20050;-76
2022/08/10 08:58:02;;;;;;;9.98;2.22;;;;;;;;;;4989056;28;20042;-77
2022/08/10 09:00:40;;;;;;;8.40;2.10;;;;;;;;;;4989495;28;20062;-77
2022/08/10 09:03:06;;;;;;;8.68;2.13;;;;;;;;;;4987530;28;20150;-76
2022/08/10 09:05:33;;;;;;;15.32;2.50;;;;;;;;;;4989659;28;20081;-75
2022/08/10 09:08:36;;;;;;;10.93;2.35;;;;;;;;;;4988794;28;20054;-77
2022/08/10 09:11:17;;;;;;;8.82;2.28;;;;;;;;;;4988810;28;20416;-77
2022/08/10 09:13:53;;;;;;;10.18;2.33;;;;;;;;;;4989042;28;20070;-78
2022/08/10 09:16:28;;;;;;;12.32;2.10;;;;;;;;;;4989860;28;20499;-78
2022/08/10 09:18:54;;;;;;;14.98;2.72;;;;;;;;;;4988763;28;20141;-76
2022/08/10 09:21:40;;;;;;;10.65;2.00;;;;;;;;;;4988132;28;20050;-77
2022/08/10 09:24:29;;;;;;;6.60;2.20;;;;;;;;;;4989101;28;20042;-77
2022/08/10 09:26:55;;;;;;;;;;;;;;;;;;4989029;28;20081;-77
2022/08/10 09:29:26;;;;;;;8.25;2.58;;;;;;;;;;4988134;28;19926;-78
2022/08/10 09:32:09;;;;;;;7.18;2.13;;;;;;;;;;4988733;28;20133;-77
2022/08/10 09:35:04;;;;;;;10.10;2.63;;;;;;;;;;4987938;28;20050;-76
2022/08/10 09:38:07;;;;;;;12.07;2.40;;;;;;;;;;4974450;28;20076;-77
2022/08/10 09:40:48;;;;;;;13.02;2.22;;;;;;;;;;4988478;28;20050;-76
2022/08/10 09:43:28;;;;;;;9.57;2.00;;;;;;;;;;4987732;28;20503;-77
2022/08/10 09:46:04;;;;;;;5.43;2.40;;;;;;;;;;4989772;28;20086;-77
2022/08/10 09:48:36;;;;;;;5.15;1.90;;;;;;;;;;4989024;28;20054;-76
2022/08/10 09:51:17;;;;;;;11.80;2.28;;;;;;;;;;4987788;28;20082;-76
2022/08/10 09:54:22;;;;;;;10.88;2.10;;;;;;;;;;4979792;28;20047;-76
2022/08/10 09:56:55;;;;;;;11.20;2.20;;;;;;;;;;4987953;28;20141;-76
2022/08/10 09:59:51;;;;;;;9.68;2.83;;;;;;;;;;4988373;28;20510;-76
2022/08/10 10:02:46;;;;;;;7.85;3.00;;;;;;;;;;4991173;28;20657;-78
2022/08/10 10:05:31;;;;;;;4.97;2.55;;;;;;;;;;5009218;28;20074;-78
2022/08/10 10:08:04;;;;;;;9.02;2.90;;;;;;;;;;5012817;28;20035;-77
2022/08/10 10:10:44;;;;;;;7.22;2.70;;;;;;;;;;4991776;28;20457;-75
2022/08/10 10:13:26;;;;;;;7.32;3.00;;;;;;;;;;4989138;28;20149;-76
2022/08/10 10:16:12;;;;;;;13.30;2.60;;;;;;;;;;4992631;28;20046;-77
2022/08/10 10:18:48;;;;;;;7.95;2.50;;;;;;;;;;4992023;28;20080;-77
2022/08/10 10:21:14;;;;;;;9.65;2.47;;;;;;;;;;4991729;28;20062;-75
2022/08/10 10:24:05;;;;;;;7.40;2.30;;;;;;;;;;5010646;28;20085;-78
2022/08/10 10:26:54;;;;;;;5.25;2.15;;;;;;;;;;4993044;28;20451;-77
2022/08/10 10:29:49;;;;;;;12.35;2.30;;;;;;;;;;4991841;28;20058;-77
2022/08/10 10:32:24;;;;;;;5.53;2.00;;;;;;;;;;4964261;28;20333;-76
2022/08/10 10:35:15;;;;;;;8.23;2.20;;;;;;;;;;4972173;28;20050;-77
2022/08/10 10:37:43;;;;;;;8.63;2.47;;;;;;;;;;4973051;28;20061;-76
2022/08/10 10:40:51;;;;;;;9.00;2.25;;;;;;;;;;4957494;28;20063;-76
2022/08/10 10:43:31;;;;;;;7.03;2.00;;;;;;;;;;4971906;28;20488;-76
2022/08/10 10:46:00;;;;;;;5.47;2.10;;;;;;;;;;4973522;28;20059;-76
2022/08/10 10:48:31;;;;;;;6.72;2.00;;;;;;;;;;4973366;28;20085;-76
2022/08/10 10:51:01;;;;;;;8.00;2.20;;;;;;;;;;4970270;28;20055;-77
2022/08/10 10:53:35;;;;;;;4.00;2.00;;;;;;;;;;4980720;28;20066;-76
2022/08/10 10:56:06;;;;;;;7.85;2.08;;;;;;;;;;4991078;28;20042;-76
2022/08/10 10:58:59;;;;;;;4.88;2.30;;;;;;;;;;4990338;28;20513;-77
2022/08/10 11:01:38;;;;;;;5.07;2.20;;;;;;;;;;4991234;28;20054;-77
2022/08/10 11:04:16;;;;;;;5.43;2.20;;;;;;;;;;4990877;28;20495;-77
2022/08/10 11:06:50;;;;;;;8.00;2.33;;;;;;;;;;4990889;28;20125;-77
2022/08/10 11:09:19;;;;;;;7.85;2.00;;;;;;;;;;4990185;28;20050;-77
2022/08/10 11:12:32;;;;;;;7.57;2.40;;;;;;;;;;4988359;28;20407;-77
2022/08/10 11:15:01;;;;;;;8.68;2.10;;;;;;;;;;4982457;28;20137;-77
2022/08/10 11:17:31;;;;;;;5.78;2.20;;;;;;;;;;4990916;28;20133;-77
2022/08/10 11:19:57;;;;;;;6.43;2.50;;;;;;;;;;4990396;28;20120;-76
2022/08/10 11:22:47;;;;;;;9.20;2.15;;;;;;;;;;4990471;28;20042;-77
2022/08/10 11:25:22;;;;;;;9.02;2.42;;;;;;;;;;4990181;28;20050;-77
2022/08/10 11:27:52;;;;;;;7.40;2.28;;;;;;;;;;4990594;28;20482;-77
2022/08/10 11:30:22;;;;;;;5.50;2.30;;;;;;;;;;4990725;28;20137;-76
2022/08/10 11:33:00;;;;;;;7.78;2.28;;;;;;;;;;4990024;28;20070;-76
2022/08/10 11:35:30;;;;;;;7.97;1.88;;;;;;;;;;4990647;28;20455;-77
2022/08/10 11:38:19;;;;;;;4.75;2.10;;;;;;;;;;4990858;28;20053;-77
2022/08/10 11:40:57;;;;;;;6.40;2.13;;;;;;;;;;4989351;28;20054;-77
2022/08/10 11:43:41;;;;;;;4.30;2.20;;;;;;;;;;4990700;28;20057;-78
2022/08/10 11:46:13;;;;;;;10.48;2.30;;;;;;;;;;4973033;28;20050;-77
2022/08/10 11:49:23;;;;;;;7.63;2.00;;;;;;;;;;4990098;28;20137;-77
2022/08/10 11:51:54;;;;;;;4.40;2.10;;;;;;;;;;4976542;28;20057;-77
2022/08/10 11:54:35;;;;;;;5.33;2.00;;;;;;;;;;4981727;28;20058;-78
2022/08/10 11:57:02;;;;;;;7.20;2.20;;;;;;;;;;4988679;28;20086;-77
2022/08/10 12:02:18;;;;;;;8.20;2.15;;;;;;;;;;4989957;28;20210;-77
2022/08/10 12:04:47;;;;;;;5.18;2.20;;;;;;;;;;4971685;28;20439;-76
2022/08/10 12:07:13;;;;;;;7.70;2.05;;;;;;;;;;4990189;28;20074;-77
2022/08/10 12:10:00;;;;;;;6.63;2.33;;;;;;;;;;4988759;28;20065;-77
2022/08/10 12:12:44;;;;;;;4.38;2.15;;;;;;;;;;4988566;28;20274;-76
2022/08/10 12:15:15;;;;;;;4.70;2.33;;;;;;;;;;4989739;28;20116;-78
2022/08/10 12:17:52;;;;;;;8.43;2.33;;;;;;;;;;4989524;28;20046;-76
2022/08/10 12:20:25;;;;;;;7.30;2.50;;;;;;;;;;4988765;28;20510;-77
2022/08/10 12:22:53;;;;;;;10.32;2.03;;;;;;;;;;4988482;28;20474;-77
2022/08/10 12:25:24;;;;;;;4.80;2.00;;;;;;;;;;4989849;28;20456;-77
2022/08/10 12:28:17;;;;;;;8.95;2.35;;;;;;;;;;4989537;28;20316;-76
2022/08/10 12:30:47;;;;;;;8.48;2.63;;;;;;;;;;4988749;28;20137;-75
2022/08/10 12:33:19;;;;;;;5.05;2.10;;;;;;;;;;4989168;28;20053;-77
2022/08/10 12:36:02;;;;;;;9.68;2.40;;;;;;;;;;4989518;28;20113;-77
2022/08/10 12:39:14;;;;;;;4.45;2.15;;;;;;;;;;4989651;28;20053;-78
2022/08/10 12:41:43;;;;;;;3.08;2.28;;;;;;;;;;4959615;28;20591;-76
2022/08/10 12:44:13;;;;;;;9.05;2.30;;;;;;;;;;4989438;28;20046;-75
2022/08/10 12:46:55;;;;;;;8.02;2.42;;;;;;;;;;4991198;28;20470;-77
2022/08/10 12:49:29;;;;;;;5.55;2.30;;;;;;;;;;4994143;28;20074;-78
2022/08/10 12:52:13;;;;;;;5.72;2.50;;;;;;;;;;5002353;28;20058;-77
2022/08/10 12:54:40;;;;;;;3.83;2.10;;;;;;;;;;4983060;28;20081;-77
2022/08/10 12:57:18;;;;;;;10.00;2.42;;;;;;;;;;4988475;28;20074;-77
2022/08/10 12:59:49;;;;;;;5.68;2.20;;;;;;;;;;4988477;28;20092;-78
2022/08/10 13:02:22;;;;;;;8.73;2.30;;;;;;;;;;4988686;28;20105;-77
2022/08/10 13:04:50;;;;;;;8.27;2.03;;;;;;;;;;4989435;28;20145;-78
2022/08/10 13:07:25;;;;;;;9.85;2.30;;;;;;;;;;4988897;28;20078;-76
2022/08/10 13:10:12;;;;;;;7.25;1.98;;;;;;;;;;4988604;28;20056;-76
2022/08/10 13:12:43;;;;;;;7.85;2.05;;;;;;;;;;4987035;28;20094;-77
2022/08/10 13:15:19;;;;;;;7.90;2.17;;;;;;;;;;4972067;28;20050;-76
2022/08/10 13:18:07;;;;;;;7.68;1.98;;;;;;;;;;4997743;28;20046;-76
2022/08/10 13:20:48;;;;;;;5.22;2.15;;;;;;;;;;5007780;28;20093;-77
2022/08/10 13:23:17;;;;;;;6.13;2.20;;;;;;;;;;5002044;28;20034;-78
2022/08/10 13:25:44;;;;;;;7.47;2.28;;;;;;;;;;5002641;28;20042;-77
2022/08/10 13:28:13;;;;;;;6.93;2.22;;;;;;;;;;4980395;28;20046;-75
2022/08/10 13:31:02;;;;;;;5.35;2.08;;;;;;;;;;4988031;28;20054;-76
2022/08/10 13:33:30;;;;;;;5.57;2.10;;;;;;;;;;4988536;28;20145;-76
2022/08/10 13:36:22;;;;;;;5.13;2.15;;;;;;;;;;4988654;28;20065;-76
2022/08/10 13:38:49;;;;;;;11.10;2.28;;;;;;;;;;4987734;28;20418;-76
2022/08/10 13:41:16;;;;;;;8.68;2.20;;;;;;;;;;4987675;28;20133;-76
2022/08/10 13:43:50;;;;;;;8.27;2.20;;;;;;;;;;4988394;28;20105;-77
2022/08/10 13:46:20;;;;;;;11.13;2.20;;;;;;;;;;4988974;28;20070;-77
2022/08/10 13:48:52;;;;;;;6.13;2.20;;;;;;;;;;4991456;28;20531;-75
2022/08/10 13:51:23;;;;;;;5.88;2.22;;;;;;;;;;4991391;28;20069;-76
2022/08/10 13:54:10;;;;;;;6.05;2.22;;;;;;;;;;4991437;28;20054;-77
2022/08/10 13:56:42;;;;;;;6.30;2.30;;;;;;;;;;4991850;28;20495;-78
2022/08/10 13:59:11;;;;;;;4.85;2.20;;;;;;;;;;4975235;28;20046;-76
2022/08/10 14:01:45;;;;;;;4.65;2.28;;;;;;;;;;4991766;28;20042;-76
2022/08/10 14:04:13;;;;;;;11.05;2.38;;;;;;;;;;4992137;28;20129;-75
2022/08/10 14:06:40;;;;;;;7.13;2.17;;;;;;;;;;4991841;28;20082;-77
2022/08/10 14:09:09;;;;;;;7.30;2.30;;;;;;;;;;4992336;28;20132;-76
2022/08/10 14:11:38;;;;;;;4.28;2.08;;;;;;;;;;4990733;28;20137;-76
2022/08/10 14:14:07;;;;;;;9.48;1.98;;;;;;;;;;4991338;28;20137;-75
2022/08/10 14:16:39;;;;;;;3.63;2.13;;;;;;;;;;4991246;28;20050;-76
2022/08/10 14:19:10;;;;;;;6.53;2.20;;;;;;;;;;4991446;28;20081;-77
2022/08/10 14:21:38;;;;;;;7.47;1.90;;;;;;;;;;4991316;28;20128;-76
2022/08/10 14:24:04;;;;;;;11.20;2.13;;;;;;;;;;4991825;28;20046;-77
2022/08/10 14:26:31;;;;;;;10.57;2.40;;;;;;;;;;5001912;28;20097;-76
2022/08/10 14:29:01;;;;;;;7.30;2.20;;;;;;;;;;4986715;28;20523;-77
2022/08/10 14:31:32;;;;;;;8.00;2.20;;;;;;;;;;5002125;28;20054;-78
2022/08/10 14:33:59;;;;;;;7.53;2.45;;;;;;;;;;5002964;28;20062;-77
2022/08/10 14:36:44;;;;;;;8.88;2.22;;;;;;;;;;4994339;28;20050;-78
2022/08/10 14:39:13;;;;;;;6.75;2.22;;;;;;;;;;4991611;28;20080;-77
2022/08/10 14:41:40;;;;;;;5.35;2.13;;;;;;;;;;4990809;28;20100;-75
2022/08/10 14:44:29;;;;;;;7.93;2.55;;;;;;;;;;4991234;28;20046;-77
2022/08/10 14:46:57;;;;;;;6.85;2.45;;;;;;;;;;4991408;28;20078;-78
2022/08/10 14:49:25;;;;;;;9.98;2.40;;;;;;;;;;4988903;28;20050;-77
2022/08/10 14:52:01;;;;;;;12.45;2.20;;;;;;;;;;4971338;28;20087;-78
2022/08/10 14:54:29;;;;;;;4.55;2.40;;;;;;;;;;4987323;28;20073;-77
2022/08/10 14:57:01;;;;;;;6.53;2.50;;;;;;;;;;4988156;28;20134;-78
2022/08/10 14:59:38;;;;;;;5.22;2.30;;;;;;;;;;4987703;28;20128;-77
2022/08/10 15:02:25;;;;;;;5.65;1.92;;;;;;;;;;4987789;28;20080;-76
2022/08/10 15:05:14;;;;;;;4.93;2.25;;;;;;;;;;4988535;28;20078;-77
2022/08/10 15:07:44;;;;;;;8.25;2.20;;;;;;;;;;4991680;28;20084;-77
2022/08/10 15:10:15;;;;;;;5.97;2.30;;;;;;;;;;4974850;28;20158;-76
2022/08/10 15:12:43;;;;;;;7.82;2.22;;;;;;;;;;4994860;28;20297;-79
2022/08/10 15:15:11;;;;;;;5.13;2.10;;;;;;;;;;5000522;28;20085;-78
2022/08/10 15:17:55;;;;;;;6.25;2.05;;;;;;;;;;4992033;28;20053;-78
2022/08/10 15:20:24;;;;;;;7.20;1.90;;;;;;;;;;4991194;28;20054;-78
2022/08/10 15:22:52;;;;;;;4.85;2.28;;;;;;;;;;4990495;28;20046;-77
2022/08/10 15:25:22;;;;;;;9.20;2.30;;;;;;;;;;4990027;28;20192;-77